Time;durP1;ratioP1;P1;durP2;ratioP2;P2;SDS_P1;SDS_P2;PMS_P1;PMS_P2;Temp;Humidity;BMP_temperature;BMP_pressure;BME280_temperature;BME280_humidity;BME280_pressure;Samples;Min_cycle;Max_cycle;Signal;HPM_P1;HPM_P2
2023/12/26 00:00:59;;;;;;;27.30;25.08;;;;;;;11.49;100.00;101005.19;4959919;28;20057;-57
2023/12/26 00:03:27;;;;;;;27.27;25.15;;;;;;;11.33;100.00;101004.56;4965570;28;20054;-57
2023/12/26 00:05:54;;;;;;;30.77;28.27;;;;;;;11.18;100.00;101015.41;4960210;28;20455;-62
2023/12/26 00:08:21;;;;;;;25.95;23.77;;;;;;;11.38;100.00;101023.41;4954290;28;20535;-62
2023/12/26 00:10:48;;;;;;;26.38;24.17;;;;;;;11.35;100.00;101023.00;4963036;28;20070;-57
2023/12/26 00:13:15;;;;;;;26.10;24.00;;;;;;;10.87;100.00;101028.44;4954655;28;20055;-62
2023/12/26 00:15:42;;;;;;;31.42;29.08;;;;;;;10.78;100.00;101028.59;4957726;28;20055;-62
2023/12/26 00:18:10;;;;;;;30.08;27.67;;;;;;;10.21;100.00;101023.63;4956814;28;20459;-57
2023/12/26 00:20:43;;;;;;;24.98;22.67;;;;;;;10.07;100.00;101023.53;4957940;28;20636;-62
2023/12/26 00:23:10;;;;;;;26.95;24.65;;;;;;;10.09;100.00;101033.94;4963202;28;20054;-62
2023/12/26 00:25:37;;;;;;;29.70;27.05;;;;;;;10.92;100.00;101039.25;4958548;28;20487;-62
2023/12/26 00:28:04;;;;;;;27.02;24.83;;;;;;;10.62;100.00;101041.41;4962786;28;20047;-62
2023/12/26 00:30:31;;;;;;;37.10;34.40;;;;;;;10.61;100.00;101043.22;4957127;28;20058;-62
2023/12/26 00:32:58;;;;;;;34.95;32.35;;;;;;;10.72;100.00;101040.03;4954601;28;20622;-57
2023/12/26 00:35:25;;;;;;;29.75;27.35;;;;;;;10.45;100.00;101040.94;4954279;28;20530;-62
2023/12/26 00:37:54;;;;;;;27.83;25.52;;;;;;;10.22;100.00;101057.91;4963164;28;20059;-57
2023/12/26 00:40:21;;;;;;;31.05;28.55;;;;;;;9.95;100.00;101070.19;4953839;28;20055;-57
2023/12/26 00:42:48;;;;;;;28.90;26.40;;;;;;;10.51;100.00;101061.38;4951146;28;20129;-57
2023/12/26 00:45:14;;;;;;;25.48;23.38;;;;;;;10.14;100.00;101070.53;4957990;28;20051;-62
2023/12/26 00:47:40;;;;;;;28.60;26.30;;;;;;;10.44;100.00;101069.31;4957298;28;20421;-57
2023/12/26 00:50:11;;;;;;;31.40;28.90;;;;;;;10.30;100.00;101070.25;4958497;28;20069;-57
2023/12/26 00:52:38;;;;;;;31.20;28.77;;;;;;;10.57;100.00;101070.41;4950676;28;20055;-56
2023/12/26 00:55:08;;;;;;;26.90;24.70;;;;;;;10.10;100.00;101072.75;4961896;28;20470;-57
2023/12/26 00:57:35;;;;;;;33.20;30.70;;;;;;;9.86;100.00;101084.59;4956764;28;20050;-57
2023/12/26 01:00:03;;;;;;;33.55;31.05;;;;;;;9.78;100.00;101088.22;4958497;28;20138;-57
2023/12/26 01:02:30;;;;;;;29.92;27.30;;;;;;;9.90;100.00;101085.06;4957512;28;20206;-57
2023/12/26 01:04:58;;;;;;;25.73;23.63;;;;;;;9.97;100.00;101080.63;4955277;28;20051;-57
2023/12/26 01:07:25;;;;;;;37.72;35.03;;;;;;;9.76;100.00;101073.50;4957401;28;20054;-57
2023/12/26 01:09:54;;;;;;;27.58;25.27;;;;;;;9.61;100.00;101077.06;4959707;28;20447;-57
2023/12/26 01:12:22;;;;;;;27.17;24.90;;;;;;;9.89;100.00;101086.06;4954073;28;20110;-57
2023/12/26 01:14:49;;;;;;;28.63;26.33;;;;;;;10.35;100.00;101072.31;4956690;28;20303;-57
2023/12/26 01:17:16;;;;;;;28.58;26.27;;;;;;;10.14;100.00;101070.53;4957999;28;20516;-57
2023/12/26 01:19:43;;;;;;;30.15;27.58;;;;;;;10.07;100.00;101067.81;4959611;28;20711;-57
2023/12/26 01:22:10;;;;;;;32.95;29.88;;;;;;;9.95;100.00;101061.41;4957246;28;20077;-57
2023/12/26 01:24:37;;;;;;;40.83;37.92;;;;;;;9.63;100.00;101067.09;4957381;28;20456;-56
2023/12/26 01:27:04;;;;;;;29.48;27.08;;;;;;;9.80;100.00;101062.34;4958662;28;20050;-57
2023/12/26 01:29:33;;;;;;;28.98;26.65;;;;;;;11.00;100.00;101063.00;4957546;28;20058;-57
2023/12/26 01:32:00;;;;;;;29.60;27.20;;;;;;;10.16;100.00;101056.03;4956779;28;20054;-57
2023/12/26 01:34:26;;;;;;;31.88;29.38;;;;;;;10.66;100.00;101066.56;4952471;28;20047;-56
2023/12/26 01:36:53;;;;;;;31.58;28.85;;;;;;;10.21;100.00;101063.44;4957290;28;20062;-57
2023/12/26 01:39:20;;;;;;;30.52;28.05;;;;;;;10.45;100.00;101063.00;4961632;28;20126;-57
2023/12/26 01:41:47;;;;;;;27.63;25.35;;;;;;;10.84;100.00;101068.69;4960241;28;20255;-57
2023/12/26 01:44:14;;;;;;;30.65;28.10;;;;;;;10.70;100.00;101071.25;4961235;28;20058;-57
2023/12/26 01:46:43;;;;;;;30.67;28.27;;;;;;;9.98;100.00;101071.63;4957913;28;20055;-57
2023/12/26 01:49:11;;;;;;;27.05;24.85;;;;;;;10.29;100.00;101072.09;4962325;28;20065;-57
2023/12/26 01:51:38;;;;;;;25.42;23.42;;;;;;;10.94;100.00;101077.91;4961155;28;20134;-57
2023/12/26 01:54:05;;;;;;;27.20;25.00;;;;;;;10.73;100.00;101075.38;4962865;28;20047;-57
2023/12/26 01:56:32;;;;;;;33.63;30.98;;;;;;;10.31;100.00;101078.00;4965954;28;20047;-57
2023/12/26 01:58:59;;;;;;;26.92;24.63;;;;;;;10.14;100.00;101081.97;4966398;28;20070;-56
2023/12/26 02:01:26;;;;;;;28.75;26.45;;;;;;;10.00;100.00;101074.94;4961929;28;20055;-57
2023/12/26 02:03:55;;;;;;;33.72;31.02;;;;;;;9.80;100.00;101080.06;4964563;28;20061;-56
2023/12/26 02:06:22;;;;;;;31.40;28.90;;;;;;;9.53;100.00;101082.50;4961154;28;20059;-56
2023/12/26 02:08:50;;;;;;;30.95;28.45;;;;;;;9.07;100.00;101082.03;4961944;28;20070;-58
2023/12/26 02:11:17;;;;;;;31.70;29.20;;;;;;;9.06;100.00;101075.91;4958401;28;20051;-58
2023/12/26 02:13:44;;;;;;;38.85;35.85;;;;;;;8.88;100.00;101078.97;4964399;28;20054;-58
2023/12/26 02:16:16;;;;;;;28.50;26.10;;;;;;;8.71;100.00;101066.94;4961505;28;20046;-58
2023/12/26 02:18:44;;;;;;;30.47;27.97;;;;;;;8.39;100.00;101078.75;4960166;28;20436;-56
2023/12/26 02:21:12;;;;;;;30.52;28.02;;;;;;;7.77;100.00;101082.44;4958703;28;20051;-58
2023/12/26 02:23:41;;;;;;;30.20;27.80;;;;;;;7.78;100.00;101097.34;4963891;28;20484;-63
2023/12/26 02:26:10;;;;;;;27.40;25.10;;;;;;;7.84;100.00;101103.69;4961280;28;20051;-58
2023/12/26 02:28:37;;;;;;;31.70;29.15;;;;;;;7.80;100.00;101096.13;4964240;28;20054;-63
2023/12/26 02:31:05;;;;;;;27.25;25.15;;;;;;;7.77;100.00;101108.88;4961727;28;20047;-64
2023/12/26 02:33:33;;;;;;;32.22;29.95;;;;;;;7.51;100.00;101094.22;4953054;28;20533;-62
2023/12/26 02:36:01;;;;;;;40.72;37.72;;;;;;;7.50;100.00;101097.88;4959499;28;20053;-63
2023/12/26 02:38:28;;;;;;;31.38;28.88;;;;;;;7.39;100.00;101102.75;4960556;28;20053;-58
2023/12/26 02:40:55;;;;;;;25.60;23.42;;;;;;;7.26;100.00;101106.78;4961053;28;20059;-57
2023/12/26 02:43:25;;;;;;;27.52;25.23;;;;;;;7.49;100.00;101100.69;4955100;28;20142;-58
2023/12/26 02:45:52;;;;;;;28.08;25.73;;;;;;;7.24;100.00;101100.03;4962083;28;20125;-57
2023/12/26 02:48:20;;;;;;;28.20;26.00;;;;;;;7.21;100.00;101098.56;4959343;28;20058;-57
2023/12/26 02:50:48;;;;;;;26.55;24.35;;;;;;;7.01;100.00;101097.34;4958595;28;20493;-58
2023/12/26 02:53:15;;;;;;;31.30;28.80;;;;;;;7.07;100.00;101102.75;4958208;28;20503;-57
2023/12/26 02:55:42;;;;;;;37.42;34.72;;;;;;;6.71;100.00;101094.50;4965420;28;21343;-58
2023/12/26 02:58:10;;;;;;;25.88;23.77;;;;;;;6.81;100.00;101096.97;4961690;28;20535;-57
2023/12/26 03:00:38;;;;;;;23.40;21.60;;;;;;;7.01;100.00;101105.25;4960745;28;20480;-57
2023/12/26 03:03:06;;;;;;;33.00;30.60;;;;;;;6.97;100.00;101098.69;4962991;28;20051;-58
2023/12/26 03:05:33;;;;;;;33.28;30.92;;;;;;;6.52;100.00;101095.72;4956889;28;20055;-58
2023/12/26 03:08:00;;;;;;;28.30;26.10;;;;;;;6.71;100.00;101093.69;4958353;28;20051;-57
2023/12/26 03:10:27;;;;;;;28.85;26.85;;;;;;;6.65;100.00;101098.63;4966341;28;20093;-58
2023/12/26 03:12:54;;;;;;;30.80;28.55;;;;;;;6.42;100.00;101097.75;4956797;28;20062;-57
2023/12/26 03:15:21;;;;;;;26.75;24.65;;;;;;;6.48;100.00;101093.63;4959225;28;20540;-58
2023/12/26 03:17:49;;;;;;;25.95;23.95;;;;;;;6.61;100.00;101093.88;4960304;28;20043;-57
2023/12/26 03:20:17;;;;;;;26.85;24.95;;;;;;;7.05;100.00;101099.47;4960458;28;20059;-58
2023/12/26 03:22:43;;;;;;;28.35;26.35;;;;;;;6.41;100.00;101090.81;4961482;28;20051;-57
2023/12/26 03:25:11;;;;;;;26.88;24.98;;;;;;;6.49;100.00;101089.97;4963331;28;20061;-58
2023/12/26 03:27:39;;;;;;;30.30;27.77;;;;;;;7.11;100.00;101090.84;4958216;28;20583;-57
2023/12/26 03:30:07;;;;;;;34.80;32.08;;;;;;;7.08;100.00;101088.56;4958106;28;20055;-57
2023/12/26 03:32:34;;;;;;;30.70;28.02;;;;;;;7.05;100.00;101095.97;4961373;28;20054;-58
2023/12/26 03:35:03;;;;;;;29.20;26.77;;;;;;;6.57;100.00;101088.13;4951290;28;20055;-57
2023/12/26 03:37:30;;;;;;;30.15;27.83;;;;;;;6.46;100.00;101101.69;4958850;28;20057;-58
2023/12/26 03:39:57;;;;;;;28.60;25.88;;;;;;;6.47;100.00;101102.50;4959328;28;20066;-58
2023/12/26 03:42:23;;;;;;;25.42;23.42;;;;;;;6.71;100.00;101099.78;4952865;28;20161;-57
2023/12/26 03:44:50;;;;;;;28.38;26.27;;;;;;;6.79;100.00;101104.22;4960288;28;20374;-58
2023/12/26 03:47:17;;;;;;;29.50;27.27;;;;;;;7.41;100.00;101106.00;4957590;28;20051;-58
2023/12/26 03:49:44;;;;;;;24.08;22.10;;;;;;;6.83;100.00;101111.59;4956715;28;20059;-58
2023/12/26 03:52:12;;;;;;;24.55;22.65;;;;;;;6.84;100.00;101110.63;4962714;28;20054;-59
2023/12/26 03:54:41;;;;;;;29.23;27.08;;;;;;;7.04;100.00;101113.66;4958171;28;20058;-58
2023/12/26 03:57:08;;;;;;;28.23;26.13;;;;;;;7.34;100.00;101119.09;4961785;28;20065;-58
2023/12/26 03:59:35;;;;;;;26.00;24.05;;;;;;;7.11;100.00;101122.56;4963174;28;20050;-58
2023/12/26 04:02:02;;;;;;;25.95;24.05;;;;;;;7.07;100.00;101121.22;4958075;28;20073;-63
2023/12/26 04:04:29;;;;;;;28.42;26.38;;;;;;;7.22;100.00;101120.50;4962376;28;20054;-63
2023/12/26 04:06:56;;;;;;;23.55;21.80;;;;;;;7.05;100.00;101125.03;4956977;28;20051;-63
2023/12/26 04:09:24;;;;;;;26.38;24.48;;;;;;;6.97;100.00;101128.56;4959311;28;20451;-63
2023/12/26 04:11:51;;;;;;;28.10;26.17;;;;;;;6.91;100.00;101129.25;4958107;28;20181;-63
2023/12/26 04:14:18;;;;;;;28.63;26.63;;;;;;;6.62;100.00;101135.94;4957304;28;20054;-62
2023/12/26 04:16:45;;;;;;;29.60;27.45;;;;;;;6.55;100.00;101134.16;4960505;28;20142;-63
2023/12/26 04:19:12;;;;;;;27.63;25.52;;;;;;;6.34;100.00;101139.97;4959705;28;20050;-63
2023/12/26 04:21:39;;;;;;;23.73;21.80;;;;;;;6.20;100.00;101144.09;4958886;28;20452;-63
2023/12/26 04:24:06;;;;;;;25.33;23.20;;;;;;;6.16;100.00;101142.78;4961937;28;20058;-63
2023/12/26 04:26:36;;;;;;;25.67;23.77;;;;;;;6.26;100.00;101146.06;4961944;28;20050;-63
2023/12/26 04:29:03;;;;;;;27.52;25.60;;;;;;;6.34;100.00;101147.88;4962141;28;20485;-63
2023/12/26 04:31:30;;;;;;;28.38;26.42;;;;;;;6.11;100.00;101156.50;4958409;28;20077;-62
2023/12/26 04:33:57;;;;;;;25.13;23.25;;;;;;;5.84;100.00;101154.97;4953758;28;20488;-63
2023/12/26 04:36:24;;;;;;;23.75;21.95;;;;;;;6.10;100.00;101160.09;4955156;28;20050;-57
2023/12/26 04:38:51;;;;;;;24.73;22.92;;;;;;;5.91;100.00;101150.69;4959585;28;20061;-57
2023/12/26 04:41:17;;;;;;;21.90;20.20;;;;;;;5.86;100.00;101147.72;4956894;28;20059;-57
2023/12/26 04:43:47;;;;;;;21.35;19.65;;;;;;;5.66;100.00;101147.22;4953627;28;20054;-57
2023/12/26 04:46:19;;;;;;;28.05;25.95;;;;;;;5.94;100.00;101152.22;4962018;28;20054;-57
2023/12/26 04:48:46;;;;;;;24.27;22.38;;;;;;;5.55;100.00;101147.53;4956057;28;20055;-58
2023/12/26 04:51:16;;;;;;;21.98;20.27;;;;;;;5.98;100.00;101153.53;4962579;28;20062;-57
2023/12/26 04:53:43;;;;;;;22.08;20.38;;;;;;;5.89;100.00;101157.09;4959216;28;20118;-57
2023/12/26 04:56:10;;;;;;;22.98;21.17;;;;;;;5.80;100.00;101166.00;4963210;28;20501;-58
2023/12/26 04:58:37;;;;;;;23.00;21.20;;;;;;;5.64;100.00;101166.81;4961973;28;20077;-57
2023/12/26 05:01:05;;;;;;;24.80;23.10;;;;;;;6.00;100.00;101170.00;4957355;28;20114;-58
2023/12/26 05:03:32;;;;;;;22.25;20.55;;;;;;;6.03;100.00;101171.50;4959818;28;20065;-57
2023/12/26 05:05:59;;;;;;;22.58;20.88;;;;;;;5.94;100.00;101168.03;4959319;28;20060;-57
2023/12/26 05:08:26;;;;;;;22.15;20.38;;;;;;;6.00;100.00;101174.47;4953182;28;20055;-58
2023/12/26 05:10:53;;;;;;;22.25;20.60;;;;;;;5.98;100.00;101169.34;4957341;28;20055;-57
2023/12/26 05:13:20;;;;;;;26.05;24.15;;;;;;;6.05;100.00;101177.41;4957498;28;20047;-57
2023/12/26 05:15:47;;;;;;;24.55;22.65;;;;;;;6.52;100.00;101182.81;4958774;28;20047;-58
2023/12/26 05:18:15;;;;;;;23.15;21.45;;;;;;;6.16;100.00;101175.28;4957485;28;20065;-57
2023/12/26 05:20:42;;;;;;;23.73;21.85;;;;;;;6.34;100.00;101182.19;4955325;28;20484;-58
2023/12/26 05:23:09;;;;;;;23.63;21.92;;;;;;;6.53;100.00;101173.06;4963162;28;20089;-57
2023/12/26 05:25:36;;;;;;;21.33;19.83;;;;;;;6.15;100.00;101178.91;4961594;28;20050;-57
2023/12/26 05:28:03;;;;;;;23.20;21.55;;;;;;;6.31;100.00;101179.88;4960971;28;20062;-57
2023/12/26 05:30:30;;;;;;;23.65;21.95;;;;;;;5.90;100.00;101178.06;4958695;28;20050;-58
2023/12/26 05:32:57;;;;;;;22.70;20.90;;;;;;;5.94;100.00;101174.13;4955942;28;20441;-57
2023/12/26 05:35:25;;;;;;;25.25;23.35;;;;;;;5.95;100.00;101177.56;4955609;28;20699;-57
2023/12/26 05:37:52;;;;;;;24.35;22.65;;;;;;;5.70;100.00;101179.34;4951399;28;20051;-57
2023/12/26 05:40:19;;;;;;;27.90;25.90;;;;;;;5.69;100.00;101183.78;4964305;28;20517;-57
2023/12/26 05:42:47;;;;;;;20.20;18.70;;;;;;;5.76;100.00;101183.97;4962671;28;20051;-57
2023/12/26 05:45:14;;;;;;;21.80;20.20;;;;;;;6.47;100.00;101187.75;4954430;28;20059;-57
2023/12/26 05:47:41;;;;;;;21.98;20.17;;;;;;;6.08;100.00;101190.25;4963027;28;20442;-57
2023/12/26 05:50:09;;;;;;;26.08;24.08;;;;;;;6.00;100.00;101199.00;4957203;28;20063;-57
2023/12/26 05:52:37;;;;;;;22.45;20.85;;;;;;;6.29;100.00;101200.31;4960993;28;20051;-57
2023/12/26 05:55:05;;;;;;;24.15;22.17;;;;;;;6.58;100.00;101191.88;4961676;28;20065;-57
2023/12/26 05:57:32;;;;;;;23.92;21.25;;;;;;;6.13;100.00;101198.53;4957983;28;20138;-57
2023/12/26 05:59:59;;;;;;;24.02;21.92;;;;;;;5.99;100.00;101193.88;4958900;28;20493;-57
2023/12/26 06:02:26;;;;;;;26.60;24.60;;;;;;;6.04;100.00;101197.69;4958969;28;20155;-57
2023/12/26 06:04:53;;;;;;;23.23;21.33;;;;;;;6.07;100.00;101194.72;4957096;28;20452;-58
2023/12/26 06:07:20;;;;;;;25.33;23.23;;;;;;;6.31;100.00;101201.81;4956929;28;20054;-57
2023/12/26 06:09:48;;;;;;;23.90;22.00;;;;;;;6.21;100.00;101198.53;4956925;28;20047;-57
2023/12/26 06:12:15;;;;;;;22.42;20.63;;;;;;;6.66;100.00;101202.44;4964201;28;20050;-58
2023/12/26 06:14:42;;;;;;;25.08;23.10;;;;;;;6.27;100.00;101204.97;4957726;28;20046;-57
2023/12/26 06:17:09;;;;;;;23.08;20.98;;;;;;;6.79;100.00;101199.25;4956653;28;20361;-58
2023/12/26 06:19:36;;;;;;;24.50;22.50;;;;;;;7.06;100.00;101198.84;4955841;28;20046;-57
2023/12/26 06:22:03;;;;;;;22.08;20.38;;;;;;;7.41;100.00;101198.50;4960970;28;20054;-57
2023/12/26 06:24:29;;;;;;;22.67;20.77;;;;;;;7.67;100.00;101196.38;4960540;28;20050;-58
2023/12/26 06:26:58;;;;;;;25.25;23.33;;;;;;;7.46;100.00;101194.34;4963746;28;20054;-57
2023/12/26 06:29:25;;;;;;;26.52;24.45;;;;;;;8.03;100.00;101201.91;4956638;28;20490;-58
2023/12/26 06:31:52;;;;;;;25.45;23.45;;;;;;;8.82;100.00;101198.06;4961579;28;20050;-58
2023/12/26 06:34:19;;;;;;;23.75;21.80;;;;;;;8.96;100.00;101197.25;4956012;28;20062;-58
2023/12/26 06:36:47;;;;;;;22.95;21.15;;;;;;;9.40;100.00;101196.38;4961285;28;20493;-58
2023/12/26 06:39:14;;;;;;;27.23;25.02;;;;;;;9.59;100.00;101200.25;4958985;28;20516;-58
2023/12/26 06:41:41;;;;;;;24.08;22.08;;;;;;;10.25;100.00;101192.09;4959832;28;20596;-57
2023/12/26 06:44:10;;;;;;;24.10;22.10;;;;;;;10.26;100.00;101199.06;4959411;28;20070;-57
2023/12/26 06:46:40;;;;;;;26.85;24.75;;;;;;;10.60;100.00;101203.63;4962119;28;20050;-57
2023/12/26 06:49:07;;;;;;;27.70;25.40;;;;;;;11.26;100.00;101197.06;4959302;28;20046;-57
2023/12/26 06:51:34;;;;;;;24.20;22.40;;;;;;;11.45;100.00;101194.44;4960100;28;20054;-57
2023/12/26 06:54:01;;;;;;;27.33;25.13;;;;;;;11.12;100.00;101201.47;4957451;28;20467;-62
2023/12/26 06:56:28;;;;;;;23.42;21.63;;;;;;;12.03;100.00;101206.47;4960941;28;20061;-57
2023/12/26 06:58:55;;;;;;;23.20;21.50;;;;;;;11.98;100.00;101211.56;4963111;28;20465;-57
2023/12/26 07:01:24;;;;;;;27.30;24.58;;;;;;;12.68;100.00;101214.63;4968255;28;20055;-57
2023/12/26 07:03:51;;;;;;;29.10;26.80;;;;;;;12.96;100.00;101214.38;4963817;28;20057;-56
2023/12/26 07:06:18;;;;;;;27.80;25.70;;;;;;;12.97;100.00;101218.69;4961885;28;20706;-57
2023/12/26 07:08:46;;;;;;;28.00;23.48;;;;;;;13.16;100.00;101214.31;4962232;28;20058;-57
2023/12/26 07:11:12;;;;;;;26.42;24.23;;;;;;;13.46;100.00;101217.28;4964787;28;20059;-57
2023/12/26 07:13:39;;;;;;;28.00;25.90;;;;;;;13.67;100.00;101216.16;4956370;28;20236;-57
2023/12/26 07:16:07;;;;;;;25.77;23.67;;;;;;;13.35;100.00;101220.66;4961705;28;20051;-57
2023/12/26 07:18:35;;;;;;;25.65;23.65;;;;;;;13.39;100.00;101229.84;4962247;28;20065;-57
2023/12/26 07:21:02;;;;;;;24.77;22.88;;;;;;;13.81;100.00;101224.91;4963371;28;20061;-58
2023/12/26 07:23:29;;;;;;;30.67;28.17;;;;;;;13.98;100.00;101232.22;4961247;28;20067;-57
2023/12/26 07:25:56;;;;;;;28.52;26.17;;;;;;;15.03;100.00;101230.69;4969667;28;20530;-58
2023/12/26 07:28:23;;;;;;;28.90;26.80;;;;;;;14.88;100.00;101233.72;4963370;28;20050;-57
2023/12/26 07:30:50;;;;;;;30.42;28.33;;;;;;;14.39;100.00;101236.19;4966428;28;20058;-57
2023/12/26 07:33:17;;;;;;;24.90;22.90;;;;;;;14.52;100.00;101235.28;4965468;28;20050;-57
2023/12/26 07:35:45;;;;;;;25.60;23.50;;;;;;;15.45;100.00;101233.47;4960787;28;20096;-58
2023/12/26 07:38:12;;;;;;;28.88;26.20;;;;;;;16.16;100.00;101231.91;4957458;28;20062;-58
2023/12/26 07:40:40;;;;;;;28.70;26.40;;;;;;;16.17;100.00;101242.38;4958361;28;20061;-58
2023/12/26 07:43:07;;;;;;;27.55;25.25;;;;;;;16.32;100.00;101235.75;4960749;28;20053;-57
2023/12/26 07:45:34;;;;;;;29.10;26.80;;;;;;;16.58;100.00;101251.41;4958597;28;20046;-57
2023/12/26 07:48:01;;;;;;;29.60;27.23;;;;;;;16.09;100.00;101253.41;4960385;28;20116;-57
2023/12/26 07:50:28;;;;;;;25.25;23.13;;;;;;;16.63;100.00;101254.19;4959027;28;20091;-57
2023/12/26 07:52:56;;;;;;;25.55;23.30;;;;;;;17.46;100.00;101254.94;4960140;28;20086;-57
2023/12/26 07:55:23;;;;;;;30.73;28.23;;;;;;;17.60;100.00;101263.50;4965367;28;20057;-57
2023/12/26 07:57:50;;;;;;;28.00;25.70;;;;;;;17.28;100.00;101258.59;4961766;28;20061;-57
2023/12/26 08:00:17;;;;;;;25.80;23.50;;;;;;;17.61;100.00;101262.47;4960718;28;20043;-57
2023/12/26 08:02:44;;;;;;;26.67;24.38;;;;;;;17.73;100.00;101265.94;4958131;28;20060;-58
2023/12/26 08:05:11;;;;;;;30.85;28.35;;;;;;;17.88;100.00;101265.41;4956411;28;20508;-57
2023/12/26 08:07:38;;;;;;;29.42;27.02;;;;;;;17.90;99.05;101267.88;4958459;28;20055;-57
2023/12/26 08:10:07;;;;;;;29.00;26.60;;;;;;;17.46;100.00;101263.00;4959631;28;20051;-58
2023/12/26 08:12:34;;;;;;;28.17;25.88;;;;;;;18.20;98.19;101271.09;4962583;28;20065;-57
2023/12/26 08:15:01;;;;;;;27.92;25.65;;;;;;;18.43;93.93;101270.13;4958285;28;20473;-57
2023/12/26 08:17:28;;;;;;;30.92;28.45;;;;;;;18.56;90.33;101273.53;4963288;28;20050;-57
2023/12/26 08:19:55;;;;;;;31.20;28.70;;;;;;;18.52;92.14;101273.22;4958035;28;20130;-57
2023/12/26 08:22:22;;;;;;;25.88;23.67;;;;;;;18.68;92.72;101271.56;4959352;28;20057;-57
2023/12/26 08:24:49;;;;;;;28.23;25.75;;;;;;;18.78;94.23;101271.75;4960058;28;20271;-58
2023/12/26 08:27:18;;;;;;;29.50;27.00;;;;;;;19.01;88.63;101275.31;4961772;28;20065;-58
2023/12/26 08:29:45;;;;;;;28.15;25.75;;;;;;;19.40;91.75;101273.38;4956761;28;20568;-57
2023/12/26 08:32:11;;;;;;;29.42;26.92;;;;;;;18.98;86.66;101268.53;4963871;28;20086;-57
2023/12/26 08:34:38;;;;;;;28.10;25.80;;;;;;;19.56;83.23;101267.09;4955069;28;20055;-58
2023/12/26 08:37:06;;;;;;;26.50;24.20;;;;;;;20.06;83.66;101271.44;4949107;28;20051;-57
2023/12/26 08:39:33;;;;;;;29.73;27.15;;;;;;;19.89;78.62;101273.41;4960776;28;20090;-57
2023/12/26 08:42:00;;;;;;;31.25;28.65;;;;;;;20.02;76.00;101267.59;4957411;28;20539;-57
2023/12/26 08:44:28;;;;;;;29.02;26.42;;;;;;;20.32;75.81;101264.34;4963152;28;20429;-58
2023/12/26 08:46:55;;;;;;;28.98;26.58;;;;;;;18.39;81.43;101265.47;4962833;28;20515;-57
2023/12/26 08:49:22;;;;;;;25.52;23.33;;;;;;;16.52;96.35;101260.38;4962846;28;20054;-57
2023/12/26 08:51:49;;;;;;;29.73;27.42;;;;;;;19.58;81.45;101266.88;4957439;28;20053;-57
2023/12/26 08:54:16;;;;;;;30.48;27.52;;;;;;;20.43;74.68;101249.06;4958451;28;20055;-57
2023/12/26 08:56:45;;;;;;;25.75;23.45;;;;;;;20.04;74.79;101246.59;4958231;28;20047;-57
2023/12/26 08:59:13;;;;;;;26.98;24.65;;;;;;;20.26;74.52;101246.50;4956756;28;20505;-57
2023/12/26 09:01:41;;;;;;;25.83;23.60;;;;;;;17.96;98.80;101237.34;4962299;28;20051;-57
2023/12/26 09:04:09;;;;;;;26.77;24.58;;;;;;;17.98;89.95;101235.22;4959248;28;20448;-57
2023/12/26 09:06:36;;;;;;;28.35;26.15;;;;;;;18.15;91.03;101227.16;4957661;28;20054;-57
2023/12/26 09:09:03;;;;;;;30.15;27.75;;;;;;;18.08;90.05;101221.97;4954283;28;20053;-58
2023/12/26 09:11:30;;;;;;;29.30;26.90;;;;;;;19.07;81.31;101220.47;4960852;28;20061;-57
2023/12/26 09:13:57;;;;;;;26.20;23.90;;;;;;;18.88;81.11;101226.16;4959822;28;20058;-57
2023/12/26 09:16:24;;;;;;;28.10;25.55;;;;;;;19.75;77.98;101218.28;4961690;28;20055;-58
2023/12/26 09:18:52;;;;;;;29.05;26.58;;;;;;;18.84;76.39;101218.81;4953015;28;20452;-57
2023/12/26 09:21:19;;;;;;;27.83;25.52;;;;;;;18.81;86.55;101214.75;4959492;28;20051;-58
2023/12/26 09:23:46;;;;;;;27.55;25.15;;;;;;;16.25;100.00;101212.56;4960676;28;20501;-57
2023/12/26 09:26:14;;;;;;;27.17;24.77;;;;;;;17.91;100.00;101205.81;4959522;28;20058;-57
2023/12/26 09:28:42;;;;;;;26.60;24.30;;;;;;;18.39;97.86;101207.13;4954674;28;20146;-57
2023/12/26 09:31:09;;;;;;;29.02;26.63;;;;;;;19.47;91.22;101205.84;4958785;28;20504;-57
2023/12/26 09:33:36;;;;;;;27.40;25.00;;;;;;;19.59;85.92;101199.25;4959859;28;20480;-58
2023/12/26 09:36:05;;;;;;;30.38;27.55;;;;;;;19.21;85.74;101201.00;4950530;28;20086;-57
2023/12/26 09:38:32;;;;;;;28.73;26.33;;;;;;;20.69;81.96;101195.28;4959178;28;20114;-57
2023/12/26 09:40:59;;;;;;;30.73;28.23;;;;;;;19.85;81.19;101199.53;4961556;28;20775;-57
2023/12/26 09:43:26;;;;;;;30.15;27.55;;;;;;;20.91;72.51;101189.72;4956174;28;20054;-58
2023/12/26 09:45:53;;;;;;;37.10;29.13;;;;;;;19.86;77.82;101184.97;4954379;28;20431;-57
2023/12/26 09:48:20;;;;;;;56.63;51.03;;;;;;;16.90;100.00;101189.38;4958241;28;20061;-57
2023/12/26 09:50:54;;;;;;;44.70;40.10;;;;;;;18.00;98.14;101177.50;4957933;28;20054;-57
2023/12/26 09:53:24;;;;;;;44.75;40.17;;;;;;;18.21;91.40;101184.00;4957540;28;20632;-57
2023/12/26 09:55:52;;;;;;;28.45;25.73;;;;;;;18.82;90.67;101178.72;4961470;28;20463;-57
2023/12/26 09:58:20;;;;;;;30.05;27.35;;;;;;;21.47;75.23;101176.44;4961898;28;20065;-57
2023/12/26 10:00:48;;;;;;;29.20;26.75;;;;;;;22.25;74.61;101176.22;4963943;28;20082;-57
2023/12/26 10:03:15;;;;;;;29.42;26.92;;;;;;;20.94;75.00;101178.41;4962728;28;20508;-57
2023/12/26 10:05:43;;;;;;;29.90;27.30;;;;;;;20.12;81.49;101161.72;4960479;28;20055;-58
2023/12/26 10:08:10;;;;;;;27.77;25.17;;;;;;;21.62;77.34;101165.63;4959847;28;20114;-58
2023/12/26 10:10:38;;;;;;;29.42;26.83;;;;;;;20.90;77.61;101164.59;4965346;28;20078;-57
2023/12/26 10:13:05;;;;;;;27.80;25.38;;;;;;;19.57;79.48;101165.53;4958223;28;20051;-57
2023/12/26 10:15:34;;;;;;;28.15;25.65;;;;;;;19.51;83.23;101172.75;4961686;28;20057;-57
2023/12/26 10:18:02;;;;;;;28.58;25.85;;;;;;;19.27;82.11;101166.03;4960567;28;20055;-57
2023/12/26 10:20:34;;;;;;;30.65;27.98;;;;;;;20.98;82.61;101166.81;4960323;28;20054;-57
2023/12/26 10:23:03;;;;;;;28.30;25.80;;;;;;;21.06;82.11;101160.09;4964057;28;20059;-58
2023/12/26 10:25:30;;;;;;;28.25;25.85;;;;;;;22.06;64.93;101157.00;4964979;28;20051;-58
2023/12/26 10:27:59;;;;;;;29.50;26.80;;;;;;;20.79;71.54;101165.66;4962116;28;20060;-57
2023/12/26 10:30:27;;;;;;;30.70;28.00;;;;;;;20.55;70.53;101155.28;4958592;28;20050;-57
2023/12/26 10:33:00;;;;;;;28.48;25.70;;;;;;;22.09;67.36;101150.25;4964368;28;20051;-57
2023/12/26 10:35:27;;;;;;;30.42;27.52;;;;;;;20.95;66.15;101153.03;4958920;28;20308;-57
2023/12/26 10:37:54;;;;;;;31.00;28.20;;;;;;;20.49;73.31;101144.69;4959661;28;20051;-58
2023/12/26 10:40:22;;;;;;;31.63;28.60;;;;;;;20.95;70.52;101139.53;4964708;28;20129;-57
2023/12/26 10:42:51;;;;;;;29.40;26.70;;;;;;;19.78;69.95;101135.03;4961579;28;20380;-58
2023/12/26 10:45:20;;;;;;;34.05;31.15;;;;;;;21.52;69.82;101129.69;4961383;28;20121;-58
2023/12/26 10:47:49;;;;;;;34.33;31.42;;;;;;;19.01;71.87;101128.06;4960643;28;20051;-57
2023/12/26 10:50:18;;;;;;;34.45;31.45;;;;;;;19.64;73.12;101123.88;4959574;28;20043;-57
2023/12/26 10:53:09;;;;;;;29.50;26.77;;;;;;;20.34;70.19;101121.97;4959748;28;20059;-57
2023/12/26 10:55:37;;;;;;;32.00;29.10;;;;;;;19.60;67.46;101114.63;4965658;28;20055;-57
2023/12/26 10:58:17;;;;;;;30.20;27.50;;;;;;;20.63;68.20;101115.38;4960796;28;20051;-57
2023/12/26 13:53:15;;;;;;;26.65;24.15;;;;;;;17.46;93.74;101010.59;4965106;28;20120;-62
2023/12/26 13:56:19;;;;;;;28.45;25.85;;;;;;;17.16;94.64;101009.03;4960360;28;20130;-57
2023/12/26 13:59:23;;;;;;;29.48;26.05;;;;;;;16.84;100.00;101007.91;4964715;28;20077;-57
2023/12/26 14:02:27;;;;;;;30.75;27.95;;;;;;;17.14;100.00;101008.44;4957706;28;20142;-57